• Join FlightAware (Why Join?)
  • Login
  • US Flag 
06:24AM EDT


 

Airport Tracker/Info


-or-


 

Live Flight TrackerFlight Track Log ✈ UAL780 ✈ 24-May-2013 ✈ KDCA - KORD

Flight Track Log - Related Links

Times and Time Zones

All times are in EDT time to prevent confusion due to time zone crossing. See the UAL780 flight status page for this flight to view local times or setup timezone preferences in your user account.

Time Position Orientation Groundspeed Altitude Reporting Facility
EDT Latitude Longitude Course Direction KTS MPH feet Rate Location/Type
06:40PM 38.8833 -77.0667 270° West 162 186 1,500  Level Potomac TRACON
06:41PM 38.9333 -77.1167 322° Northwest 233 268 4,800 2,880 Climbing Potomac TRACON
06:42PM 38.9102 -77.3768 322° Northwest  Level FlightAware Approximate
06:42PM 38.9833 -77.1833 314° West 248 285 7,600  Level Potomac TRACON
06:43PM 38.9333 -77.4909 270° West  Level FlightAware Approximate
06:44PM 38.9333 -77.6153 270° West  Level FlightAware Approximate
06:44PM 38.9811 -77.3994 269° West 311 358 13,000  Level Washington Center
06:45PM 38.9333 -77.7397 270° West  Level FlightAware Approximate
06:45PM 38.9772 -77.5194 268° West 323 372 14,600  Level Washington Center
06:46PM 38.9772 -77.6450 270° West 372 428 16,100 1,320 Climbing Washington Center
06:47PM 38.9683 -77.7994 266° West 398 458 17,300 840 Climbing Washington Center
06:48PM 38.9344 -77.9239 251° West 408 470 17,900 1,020 Climbing Washington Center
06:49PM 38.8983 -78.0642 252° West 413 475 19,400 1,620 Climbing Washington Center
06:50PM 38.9056 -78.2139 274° West 418 481 21,200 2,100 Climbing Washington Center
06:51PM 38.9192 -78.3611 277° West 413 475 23,700 1,860 Climbing Washington Center
06:52PM 38.9325 -78.5031 277° West 413 475 25,100 1,320 Climbing Washington Center
06:53PM 38.9453 -78.6531 276° West 413 475 26,400 1,320 Climbing Washington Center
06:54PM 38.9581 -78.8058 276° West 425 489 27,800 1,320 Climbing Washington Center
06:55PM 38.9725 -78.9586 277° West 430 495 29,000 1,620 Climbing Washington Center
06:56PM 38.9850 -79.1114 276° West 436 502 31,100 1,320 Climbing Washington Center
06:57PM 38.9992 -79.2617 277° West 431 496 31,700 1,080 Climbing Washington Center
06:58PM 39.0111 -79.4144 276° West 431 496 33,300 1,320 Climbing Washington Center
06:59PM 39.0208 -79.5619 275° West 426 490 34,400 1,140 Climbing Washington Center
07:00PM 39.0344 -79.7178 276° West 436 502 35,600 720 Climbing Washington Center
07:01PM 39.0475 -79.8814 276° West 425 489 35,900 600 Climbing Washington Center
07:03PM 39.0633 -80.1553 274° West 413 475 37,500 600 Climbing Indianapolis Center
07:04PM 39.0739 -80.3050 275° West 419 482 37,800 240 Climbing Indianapolis Center
07:05PM 39.0853 -80.4522 276° West 415 478 38,000 60 Climbing Indianapolis Center
07:06PM 39.1386 -80.6156 293° West 414 476 38,000  Level Indianapolis Center
07:07PM 39.1950 -80.7464 299° West 422 486 38,000  Level Indianapolis Center
07:08PM 39.2536 -80.8811 299° West 432 497 38,000  Level Indianapolis Center
07:10PM 39.3114 -81.0181 299° West 435 501 38,000  Level Indianapolis Center
07:11PM 39.3714 -81.1550 300° West 440 506 38,000  Level Indianapolis Center
07:12PM 39.4286 -81.2928 298° West 439 505 38,000  Level Indianapolis Center
07:13PM 39.4978 -81.4544 299° West 430 495 38,000  Level Indianapolis Center
07:14PM 39.5536 -81.5894 298° West 426 490 38,000  Level Indianapolis Center
07:15PM 39.6092 -81.7214 299° West 419 482 38,000  Level Indianapolis Center
07:16PM 39.6625 -81.8486 299° West 406 467 38,000 -60 Level Indianapolis Center
07:17PM 39.7206 -81.9889 298° West 413 475 37,900  Descending Indianapolis Center
07:18PM 39.7750 -82.1200 298° West 409 471 38,000  Climbing Indianapolis Center
07:19PM 39.8281 -82.2492 298° West 403 464 38,000  Level Indianapolis Center
07:20PM 39.8808 -82.3767 298° West 398 458 38,000 -60 Level Indianapolis Center
07:21PM 39.9342 -82.5053 298° West 401 461 37,900 -60 Descending Indianapolis Center
07:22PM 39.9942 -82.6564 297° West 400 460 37,900  Level Indianapolis Center
07:23PM 40.0469 -82.7861 298° West 403 464 38,000  Climbing Indianapolis Center
07:24PM 40.0992 -82.9147 298° West 400 460 37,900 -60 Descending Indianapolis Center
07:25PM 40.1511 -83.0422 298° West 396 456 37,900  Level Indianapolis Center
07:26PM 40.2011 -83.1686 297° West 393 452 38,000  Climbing Indianapolis Center
07:27PM 40.2506 -83.2942 297° West 389 448 37,900 -60 Descending Indianapolis Center
07:28PM 40.3083 -83.4375 298° West 382 440 37,900  Level Indianapolis Center
07:29PM 40.3564 -83.5614 297° West 381 438 37,900  Level Indianapolis Center
07:30PM 40.4053 -83.6858 297° West 384 442 37,900  Level Indianapolis Center
07:31PM 40.4556 -83.8142 297° West 392 451 38,000 -180 Climbing Indianapolis Center
07:32PM 40.5064 -83.9433 297° West 396 456 37,600 -600 Descending Indianapolis Center
07:33PM 40.5539 -84.0661 297° West 378 435 36,800 -900 Descending Indianapolis Center
07:34PM 40.6000 -84.1869 297° West 369 425 35,800 -1,080 Descending Indianapolis Center
07:35PM 40.6561 -84.3303 297° West 374 430 34,700 -960 Descending Indianapolis Center
07:36PM 40.7022 -84.4544 296° West 374 430 33,900 -360 Descending Indianapolis Center
07:37PM 40.7489 -84.5789 296° West 377 434 34,000  Climbing Indianapolis Center
07:38PM 40.7969 -84.7036 297° West 378 435 33,900 -60 Descending Indianapolis Center
07:39PM 40.8478 -84.8264 299° West 378 435 33,900 -180 Level Indianapolis Center
07:40PM 40.8944 -84.9386 299° West 375 432 33,600 -780 Descending Indianapolis Center
07:41PM 40.9547 -85.0839 299° West 378 435 32,400 -1,080 Descending Indianapolis Center
07:42PM 41.0056 -85.2061 299° West 380 437 31,400 -1,020 Descending Indianapolis Center
07:44PM 41.0711 -85.3667 298° West 388 447 30,100 -1,020 Descending Chicago Center
07:45PM 41.1225 -85.4925 298° West 388 447 29,100 -960 Descending Chicago Center
07:46PM 41.1731 -85.6181 298° West 387 445 28,200 -1,020 Descending Chicago Center
07:47PM 41.2219 -85.7411 298° West 379 436 27,100 -1,500 Descending Chicago Center
07:48PM 41.2686 -85.8619 297° West 370 426 25,100 -1,020 Descending Chicago Center
07:49PM 41.2997 -85.9914 288° West 367 422 25,000 -60 Descending Chicago Center
07:50PM 41.3289 -86.1231 286° West 369 425 25,000  Level Chicago Center
07:51PM 41.3658 -86.2803 287° West 369 425 25,000 -300 Level Chicago Center
07:52PM 41.3958 -86.4128 287° West 371 427 24,400 -780 Descending Chicago Center
07:53PM 41.4256 -86.5425 287° West 368 423 23,400 -1,020 Descending Chicago Center
07:54PM 41.4539 -86.6706 286° West 361 415 22,300 -1,680 Descending Chicago Center
07:55PM 41.4853 -86.8097 287° West 351 404 19,900 -2,280 Descending Chicago Center
07:56PM 41.5131 -86.9322 287° West 347 399 17,700 -2,100 Descending Chicago Center
07:57PM 41.5400 -87.0533 287° West 344 396 15,600 -2,160 Descending Chicago Center
07:58PM 41.5664 -87.1769 286° West 346 398 13,300 -2,160 Descending Chicago Center
07:59PM 41.6197 -87.3053 299° West 339 390 11,200 -1,500 Descending Chicago Center
08:00PM 41.6739 -87.3964 309° West 321 369 10,200 -840 Descending Chicago Center
08:01PM 41.7203 -87.4714 310° West 273 314 9,500 -600 Descending Chicago Center
08:02PM 41.7686 -87.5494 310° West 274 315 9,000 -600 Descending Chicago Center
08:03PM 41.8281 -87.6111 322° Northwest 272 313 8,300 -540 Descending Chicago Center
08:04PM 41.8981 -87.6856 322° Northwest 271 312 8,000 -480 Descending Chicago Center
08:05PM 41.9478 -87.7394 321° Northwest 240 276 7,400 -480 Descending Chicago Center
08:07PM 41.9958 -87.7908 322° Northwest 226 260 7,000 -240 Descending Chicago Center
08:08PM 42.0294 -87.8608 303° West 232 267 7,000  Level Chicago Center
08:08PM 42.0500 -87.9333 291° West 227 261 7,000  Level Chicago TRACON
08:09PM 42.0833 -88.0000 304° West 190 219 7,100 -480 Climbing Chicago TRACON
08:10PM 42.0833 -88.0833 270° West 193 222 6,100 -1,200 Descending Chicago TRACON
08:11PM 42.0667 -88.1500 251° West 194 223 4,800 -1,080 Descending Chicago TRACON
08:12PM 42.0500 -88.2000 246° West 201 231 4,000 -660 Descending Chicago TRACON
08:13PM 42.0456 -88.2106 240° Southwest 200 230 4,000  Level Chicago Center
08:14PM 42.0014 -88.1564 138° Southeast 199 229 4,000 -360 Level Chicago Center
08:14PM 41.9833 -88.1167 121° Southeast 191 220 3,400 -840 Descending Chicago TRACON